createdAt,value
2022-08-03T00:00:42.343Z,97735.63
2022-08-03T00:02:50.268Z,97730.31
2022-08-03T00:05:01.795Z,97732.94
2022-08-03T00:07:10.955Z,97732.94
2022-08-03T00:09:18.855Z,97727.28
2022-08-03T00:11:26.782Z,97729.63
2022-08-03T00:13:34.636Z,97727.72
2022-08-03T00:15:43.503Z,97729.31
2022-08-03T00:17:53.358Z,97725.63
2022-08-03T00:20:04.368Z,97724.09
2022-08-03T00:22:12.249Z,97727.34
2022-08-03T00:24:20.102Z,97724.38
2022-08-03T00:26:28.198Z,97721.44
2022-08-03T00:28:36.110Z,97724.53
2022-08-03T00:30:44.092Z,97721.16
2022-08-03T00:32:52.523Z,97723.75
2022-08-03T00:35:08.074Z,97727.59
2022-08-03T00:37:18.455Z,97728.44
2022-08-03T00:39:26.312Z,97718.63
2022-08-03T00:41:34.080Z,97722.56
2022-08-03T00:43:41.944Z,97723.50
2022-08-03T00:45:50.178Z,97722.66
2022-08-03T00:47:59.418Z,97723.34
2022-08-03T00:50:10.470Z,97723.28
2022-08-03T00:52:19.459Z,97724.81
2022-08-03T00:54:28.530Z,97730.81
2022-08-03T00:56:36.494Z,97715.25
2022-08-03T00:58:46.560Z,97722.66
2022-08-03T01:00:54.580Z,97725.16
2022-08-03T01:03:02.517Z,97726.59
2022-08-03T01:05:13.537Z,97728.72
2022-08-03T01:07:29.153Z,97724.63
2022-08-03T01:09:44.333Z,97726.59
2022-08-03T01:12:00.310Z,97718.13
2022-08-03T01:14:18.627Z,97714.69
2022-08-03T01:16:36.730Z,97714.00
2022-08-03T01:18:50.202Z,97718.16
2022-08-03T01:21:07.758Z,97710.94
2022-08-03T01:23:42.517Z,97707.56
2022-08-03T01:26:06.242Z,97703.56
2022-08-03T01:28:48.684Z,97701.03
2022-08-03T01:31:13.730Z,97700.22
2022-08-03T01:33:59.246Z,97702.50
2022-08-03T01:36:13.651Z,97696.44
2022-08-03T01:38:47.830Z,97689.78
2022-08-03T01:40:59.999Z,97696.44
2022-08-03T01:44:27.759Z,97692.75
2022-08-03T01:45:48.343Z,97685.25
2022-08-03T01:47:59.967Z,97688.97
2022-08-03T01:50:15.554Z,97691.09
2022-08-03T01:52:42.951Z,97686.63
2022-08-03T01:54:56.555Z,97681.38
2022-08-03T01:57:05.768Z,97681.09
2022-08-03T01:59:17.508Z,97679.56
2022-08-03T02:01:27.021Z,97677.13
2022-08-03T02:04:01.188Z,97687.31
2022-08-03T02:06:56.827Z,97680.09
2022-08-03T02:08:42.112Z,97674.44
2022-08-03T02:10:51.543Z,97676.16
2022-08-03T02:13:03.281Z,97675.88
2022-08-03T02:15:12.847Z,97676.88
2022-08-03T02:17:39.362Z,97676.00
2022-08-03T02:19:51.958Z,97681.25
2022-08-03T02:22:01.949Z,97686.06
2022-08-03T02:24:10.111Z,97676.72
2022-08-03T02:26:22.582Z,97689.59
2022-08-03T02:28:35.350Z,97688.91
2022-08-03T02:30:46.914Z,97686.78
2022-08-03T02:33:03.547Z,97680.66
2022-08-03T02:35:18.275Z,97683.78
2022-08-03T02:37:30.787Z,97680.38
2022-08-03T02:39:39.808Z,97682.06
2022-08-03T02:42:02.350Z,97676.44
2022-08-03T02:44:13.731Z,97676.44
2022-08-03T02:46:25.645Z,97673.31
2022-08-03T02:48:35.800Z,97678.69
2022-08-03T02:50:48.181Z,97671.63
2022-08-03T02:52:57.919Z,97671.91
2022-08-03T02:55:07.478Z,97681.66
2022-08-03T02:57:17.094Z,97670.34
2022-08-03T02:59:26.236Z,97674.84
2022-08-03T03:01:34.942Z,97675.44
2022-08-03T03:03:45.421Z,97670.34
2022-08-03T03:05:59.781Z,97681.81
2022-08-03T03:08:17.620Z,97671.63
2022-08-03T03:10:27.554Z,97675.44
2022-08-03T03:12:36.536Z,97676.00
2022-08-03T03:14:44.539Z,97673.47
2022-08-03T03:16:58.043Z,97679.25
2022-08-03T03:19:06.139Z,97682.06
2022-08-03T03:21:20.759Z,97675.16
2022-08-03T03:23:30.943Z,97676.28
2022-08-03T03:25:39.289Z,97668.81
2022-08-03T03:27:50.830Z,97681.25
2022-08-03T03:30:00.032Z,97670.66
2022-08-03T03:32:12.432Z,97675.31
2022-08-03T03:34:22.038Z,97672.59
2022-08-03T03:36:34.169Z,97673.44
2022-08-03T03:38:42.107Z,97676.72
2022-08-03T03:40:51.401Z,97674.19
2022-08-03T03:42:59.475Z,97679.97
2022-08-03T03:45:07.993Z,97677.72
2022-08-03T03:47:16.623Z,97669.91
2022-08-03T03:49:24.880Z,97676.13
2022-08-03T03:51:35.412Z,97678.41
2022-08-03T03:53:43.401Z,97677.88
2022-08-03T03:56:04.302Z,97684.63
2022-08-03T03:58:14.695Z,97681.38
2022-08-03T04:00:27.343Z,97679.81
2022-08-03T04:02:35.968Z,97681.53
2022-08-03T04:04:56.117Z,97679.13
2022-08-03T04:07:19.125Z,97686.38
2022-08-03T04:09:39.313Z,97685.19
2022-08-03T04:11:53.237Z,97690.56
2022-08-03T04:14:06.403Z,97691.16
2022-08-03T04:16:17.962Z,97693.53
2022-08-03T04:18:27.119Z,97701.59
2022-08-03T04:20:40.497Z,97692.41
2022-08-03T04:22:52.553Z,97700.91
2022-08-03T04:25:04.270Z,97690.75
2022-08-03T04:27:15.449Z,97689.72
2022-08-03T04:29:25.403Z,97692.28
2022-08-03T04:31:34.390Z,97682.91
2022-08-03T04:33:44.130Z,97691.47
2022-08-03T04:36:02.248Z,97696.06
2022-08-03T04:38:16.151Z,97705.78
2022-08-03T04:40:29.730Z,97709.28
2022-08-03T04:42:40.621Z,97710.16
2022-08-03T04:44:51.715Z,97717.06
2022-08-03T04:47:01.092Z,97708.28
2022-08-03T04:49:09.710Z,97712.56
2022-08-03T04:51:19.883Z,97715.19
2022-08-03T04:53:30.375Z,97720.94
2022-08-03T04:55:38.724Z,97736.47
2022-08-03T04:57:46.460Z,97746.16
2022-08-03T05:00:02.262Z,97742.06
2022-08-03T05:02:11.224Z,97746.63
2022-08-03T05:04:20.594Z,97748.09
2022-08-03T05:06:54.857Z,97758.25
2022-08-03T05:09:07.370Z,97750.81
2022-08-03T05:11:15.383Z,97750.06
2022-08-03T05:13:23.183Z,97747.78
2022-08-03T05:15:31.247Z,97752.53
2022-08-03T05:17:39.594Z,97742.81
2022-08-03T05:19:47.393Z,97750.03
2022-08-03T05:21:55.254Z,97774.53
2022-08-03T05:24:05.911Z,97793.78
2022-08-03T05:26:14.667Z,97786.22
2022-08-03T05:28:22.510Z,97793.50
2022-08-03T05:30:33.895Z,97793.56
2022-08-03T05:32:42.114Z,97800.28
2022-08-03T05:34:49.998Z,97786.38
2022-08-03T05:36:57.788Z,97799.25
2022-08-03T05:39:10.060Z,97804.38
2022-08-03T05:41:23.728Z,97801.00
2022-08-03T05:43:44.939Z,97798.56
2022-08-03T05:46:11.548Z,97796.53
2022-08-03T05:48:20.595Z,97772.88
2022-08-03T05:50:28.703Z,97779.72
2022-08-03T05:52:36.688Z,97787.19
2022-08-03T05:54:55.315Z,97794.00
2022-08-03T05:57:05.404Z,97798.59
2022-08-03T05:59:37.152Z,97792.28
2022-08-03T06:01:43.291Z,97796.22
2022-08-03T06:03:52.177Z,97790.28
2022-08-03T06:06:00.787Z,97792.16
2022-08-03T06:08:09.146Z,97795.41
2022-08-03T06:10:36.216Z,97786.53
2022-08-03T06:12:47.989Z,97791.47
2022-08-03T06:14:55.807Z,97803.03
2022-08-03T06:17:03.630Z,97794.50
2022-08-03T06:19:11.588Z,97802.56
2022-08-03T06:21:19.395Z,97807.81
2022-08-03T06:23:52.373Z,97812.38
2022-08-03T06:25:57.692Z,97812.78
2022-08-03T06:28:09.486Z,97814.13
2022-08-03T06:30:21.397Z,97795.72
2022-08-03T06:32:29.592Z,97792.44
2022-08-03T06:34:37.590Z,97797.69
2022-08-03T06:36:45.498Z,97784.19
2022-08-03T06:38:53.312Z,97776.69
2022-08-03T06:41:03.852Z,97771.56
2022-08-03T06:43:12.695Z,97776.78
2022-08-03T06:45:20.979Z,97784.56
2022-08-03T06:47:31.986Z,97785.09
2022-08-03T06:50:16.639Z,97785.00
2022-08-03T06:52:15.377Z,97793.59
2022-08-03T06:54:46.533Z,97810.59
2022-08-03T06:57:01.635Z,97819.56
2022-08-03T07:00:10.656Z,97817.03
2022-08-03T07:01:42.740Z,97826.25
2022-08-03T07:03:52.509Z,97823.16
2022-08-03T07:06:00.578Z,97822.19
2022-08-03T07:08:08.456Z,97831.78
2022-08-03T07:10:16.392Z,97831.31
2022-08-03T07:12:26.912Z,97822.44
2022-08-03T07:14:35.193Z,97807.56
2022-08-03T07:16:44.059Z,97796.25
2022-08-03T07:18:51.965Z,97806.53
2022-08-03T07:21:00.124Z,97804.69
2022-08-03T07:23:18.816Z,97808.91
2022-08-03T07:25:27.300Z,97811.81
2022-08-03T07:27:38.458Z,97813.47
2022-08-03T07:29:48.459Z,97810.97
2022-08-03T07:31:56.321Z,97816.06
2022-08-03T07:34:04.413Z,97812.69
2022-08-03T07:36:12.319Z,97808.75
2022-08-03T07:38:21.237Z,97812.63
2022-08-03T07:40:34.003Z,97803.06
2022-08-03T07:42:44.815Z,97801.03
2022-08-03T07:44:52.716Z,97801.50
2022-08-03T07:47:03.299Z,97805.09
2022-08-03T07:49:11.638Z,97805.53
2022-08-03T07:51:19.485Z,97811.16
2022-08-03T07:53:28.534Z,97791.03
2022-08-03T07:55:36.392Z,97792.41
2022-08-03T07:57:48.223Z,97785.19
2022-08-03T08:00:01.496Z,97780.97
2022-08-03T08:02:19.995Z,97776.22
2022-08-03T08:04:27.874Z,97774.56
2022-08-03T08:06:35.855Z,97759.31
2022-08-03T08:08:46.889Z,97752.78
2022-08-03T08:10:58.113Z,97744.72
2022-08-03T08:13:09.773Z,97735.25
2022-08-03T08:15:18.016Z,97728.09
2022-08-03T08:17:25.916Z,97733.78
2022-08-03T08:19:33.919Z,97731.69
2022-08-03T08:21:53.658Z,97738.50
2022-08-03T08:24:18.122Z,97734.09
2022-08-03T08:26:29.153Z,97737.41
2022-08-03T08:28:39.615Z,97729.97
2022-08-03T08:30:50.459Z,97732.09
2022-08-03T08:32:58.472Z,97734.00
2022-08-03T08:35:06.557Z,97734.19
2022-08-03T08:37:14.591Z,97739.72
2022-08-03T08:39:22.452Z,97732.41
2022-08-03T08:41:33.847Z,97745.16
2022-08-03T08:43:45.322Z,97748.97
2022-08-03T08:45:57.011Z,97742.19
2022-08-03T08:48:08.318Z,97734.78
2022-08-03T08:50:27.782Z,97734.13
2022-08-03T08:52:37.117Z,97732.00
2022-08-03T08:54:47.268Z,97735.41
2022-08-03T08:57:12.483Z,97744.06
2022-08-03T08:59:48.411Z,97745.78
2022-08-03T09:02:03.438Z,97744.31
2022-08-03T09:04:12.859Z,97747.06
2022-08-03T09:06:25.089Z,97752.28
2022-08-03T09:08:34.784Z,97754.00
2022-08-03T09:10:42.596Z,97755.00
2022-08-03T09:12:55.748Z,97756.63
2022-08-03T09:15:23.202Z,97765.66
2022-08-03T09:17:46.417Z,97776.59
2022-08-03T09:20:09.775Z,97789.06
2022-08-03T09:22:19.943Z,97796.31
2022-08-03T09:24:41.230Z,97792.47
2022-08-03T09:26:54.197Z,97792.56
2022-08-03T09:29:08.121Z,97796.72
2022-08-03T09:31:22.548Z,97787.63
2022-08-03T09:33:35.966Z,97788.00
2022-08-03T09:35:54.472Z,97790.72
2022-08-03T09:38:16.488Z,97795.41
2022-08-03T09:40:38.046Z,97804.44
2022-08-03T09:42:59.662Z,97788.22
2022-08-03T09:45:30.093Z,97784.34
2022-08-03T09:47:44.899Z,97784.19
2022-08-03T09:50:02.256Z,97788.16
2022-08-03T09:52:39.324Z,97781.63
2022-08-03T09:54:48.918Z,97771.13
2022-08-03T09:56:56.975Z,97771.75
2022-08-03T09:59:04.899Z,97767.63
2022-08-03T10:01:24.483Z,97772.41
2022-08-03T10:04:02.725Z,97773.78
2022-08-03T10:06:19.540Z,97778.19
2022-08-03T10:08:27.949Z,97772.84
2022-08-03T10:10:48.851Z,97778.94
2022-08-03T10:12:57.631Z,97784.47
2022-08-03T10:15:05.900Z,97778.00
2022-08-03T10:17:13.903Z,97775.88
2022-08-03T10:19:25.686Z,97789.47
2022-08-03T10:21:37.599Z,97782.53
2022-08-03T10:23:47.709Z,97776.19
2022-08-03T10:26:01.275Z,97776.00
2022-08-03T10:28:10.983Z,97777.88
2022-08-03T10:30:19.393Z,97774.56
2022-08-03T10:32:37.557Z,97771.91
2022-08-03T10:34:51.772Z,97765.19
2022-08-03T10:37:13.616Z,97758.84
2022-08-03T10:39:24.509Z,97759.34
2022-08-03T10:41:35.996Z,97757.69
2022-08-03T10:43:49.592Z,97749.81
2022-08-03T10:46:11.022Z,97752.91
2022-08-03T10:48:20.756Z,97740.38
2022-08-03T10:50:37.032Z,97731.34
2022-08-03T10:53:03.834Z,97745.38
2022-08-03T10:55:45.462Z,97739.94
2022-08-03T10:57:59.193Z,97735.91
2022-08-03T11:00:08.457Z,97732.06
2022-08-03T11:02:17.982Z,97739.88
2022-08-03T11:04:29.987Z,97734.88
2022-08-03T11:06:41.016Z,97725.84
2022-08-03T11:08:49.567Z,97732.00
2022-08-03T11:10:59.344Z,97727.84
2022-08-03T11:13:10.547Z,97724.06
2022-08-03T11:15:36.084Z,97721.81
2022-08-03T11:18:11.599Z,97713.91
2022-08-03T11:20:19.625Z,97712.06
2022-08-03T11:22:51.636Z,97711.84
2022-08-03T11:25:09.154Z,97696.44
2022-08-03T11:27:38.938Z,97710.44
2022-08-03T11:29:58.167Z,97699.94
2022-08-03T11:32:06.537Z,97700.97
2022-08-03T11:34:17.102Z,97698.44
2022-08-03T11:36:32.234Z,97699.06
2022-08-03T11:39:16.503Z,97696.34
2022-08-03T11:41:45.032Z,97691.06
2022-08-03T11:43:53.478Z,97696.84
2022-08-03T11:46:03.921Z,97692.09
2022-08-03T11:48:20.674Z,97682.88
2022-08-03T11:50:39.516Z,97685.38
2022-08-03T11:52:47.451Z,97690.31
2022-08-03T11:54:59.483Z,97686.56
2022-08-03T11:57:07.751Z,97680.59
2022-08-03T11:59:21.590Z,97685.72
2022-08-03T12:01:31.796Z,97682.03
2022-08-03T12:03:42.670Z,97682.25
2022-08-03T12:05:52.788Z,97675.44
2022-08-03T12:08:04.189Z,97670.31
2022-08-03T12:10:18.924Z,97678.56
2022-08-03T12:12:27.145Z,97673.28
2022-08-03T12:14:48.980Z,97660.25
2022-08-03T12:16:59.548Z,97650.94
2022-08-03T12:19:09.415Z,97662.28
2022-08-03T12:21:19.158Z,97658.22
2022-08-03T12:23:37.399Z,97657.72
2022-08-03T12:25:50.675Z,97660.13
2022-08-03T12:28:36.407Z,97654.56
2022-08-03T12:30:39.453Z,97663.91
2022-08-03T12:32:47.702Z,97661.66
2022-08-03T12:35:00.169Z,97656.78
2022-08-03T12:37:21.871Z,97650.81
2022-08-03T12:39:31.577Z,97653.78
2022-08-03T12:41:43.637Z,97665.50
2022-08-03T12:43:52.722Z,97652.75
2022-08-03T12:46:14.093Z,97654.53
2022-08-03T12:48:21.997Z,97644.81
2022-08-03T12:50:32.745Z,97648.16
2022-08-03T12:52:46.341Z,97641.84
2022-08-03T12:54:58.779Z,97648.69
2022-08-03T12:57:15.761Z,97643.16
2022-08-03T12:59:32.260Z,97643.75
2022-08-03T13:01:55.158Z,97643.28
2022-08-03T13:04:05.713Z,97632.88
2022-08-03T13:06:17.156Z,97635.72
2022-08-03T13:08:27.017Z,97624.25
2022-08-03T13:10:36.396Z,97632.63
2022-08-03T13:12:58.660Z,97633.53
2022-08-03T13:15:08.927Z,97636.19
2022-08-03T13:17:18.269Z,97632.50
2022-08-03T13:19:26.249Z,97638.72
2022-08-03T13:21:36.118Z,97623.41
2022-08-03T13:24:08.120Z,97642.16
2022-08-03T13:26:16.377Z,97636.56
2022-08-03T13:28:28.876Z,97636.78
2022-08-03T13:30:39.055Z,97635.31
2022-08-03T13:32:51.127Z,97631.84
2022-08-03T13:35:02.683Z,97631.91
2022-08-03T13:37:12.139Z,97621.75
2022-08-03T13:39:22.235Z,97623.34
2022-08-03T13:41:40.713Z,97623.31
2022-08-03T13:44:12.086Z,97624.97
2022-08-03T13:46:25.287Z,97616.69
2022-08-03T13:48:36.633Z,97624.97
2022-08-03T13:50:47.252Z,97623.56
2022-08-03T13:52:55.154Z,97623.41
2022-08-03T13:55:03.453Z,97612.72
2022-08-03T13:58:03.233Z,97605.38
2022-08-03T13:59:44.761Z,97607.16
2022-08-03T14:01:55.909Z,97614.22
2022-08-03T14:04:03.839Z,97617.84
2022-08-03T14:06:14.169Z,97617.09
2022-08-03T14:08:22.091Z,97606.22
2022-08-03T14:10:29.969Z,97608.59
2022-08-03T14:12:38.379Z,97605.94
2022-08-03T14:14:49.068Z,97599.88
2022-08-03T14:16:57.041Z,97591.56
2022-08-03T14:19:04.923Z,97593.84
2022-08-03T14:21:12.742Z,97590.00
2022-08-03T14:23:21.887Z,97590.97
2022-08-03T14:25:31.002Z,97588.69
2022-08-03T14:27:53.731Z,97588.91
2022-08-03T14:30:04.758Z,97590.00
2022-08-03T14:32:13.655Z,97584.66
2022-08-03T14:34:21.625Z,97590.69
2022-08-03T14:36:29.446Z,97594.97
2022-08-03T14:38:38.599Z,97595.25
2022-08-03T14:40:49.465Z,97588.00
2022-08-03T14:42:58.653Z,97583.81
2022-08-03T14:45:20.381Z,97575.91
2022-08-03T14:47:28.648Z,97588.34
2022-08-03T14:50:30.063Z,97575.19
2022-08-03T14:52:10.520Z,97586.94
2022-08-03T14:54:18.364Z,97583.44
2022-08-03T14:56:26.306Z,97581.16
2022-08-03T14:58:34.399Z,97569.34
2022-08-03T15:00:44.995Z,97569.22
2022-08-03T15:02:52.975Z,97570.47
2022-08-03T15:05:00.890Z,97560.53
2022-08-03T15:07:09.095Z,97563.63
2022-08-03T15:09:24.309Z,97557.28
2022-08-03T15:11:32.227Z,97559.31
2022-08-03T15:13:40.136Z,97555.13
2022-08-03T15:15:54.375Z,97548.53
2022-08-03T15:18:02.717Z,97551.78
2022-08-03T15:20:28.860Z,97550.22
2022-08-03T15:22:43.091Z,97545.72
2022-08-03T15:24:51.070Z,97540.91
2022-08-03T15:26:59.511Z,97547.22
2022-08-03T15:29:10.502Z,97543.63
2022-08-03T15:31:40.896Z,97540.88
2022-08-03T15:33:50.025Z,97542.09
2022-08-03T15:36:01.573Z,97534.69
2022-08-03T15:38:09.895Z,97531.09
2022-08-03T15:40:22.602Z,97522.25
2022-08-03T15:42:36.364Z,97515.31
2022-08-03T15:44:45.859Z,97533.03
2022-08-03T15:46:56.769Z,97530.06
2022-08-03T15:49:04.600Z,97539.81
2022-08-03T15:51:15.590Z,97533.50
2022-08-03T15:53:23.685Z,97529.28
2022-08-03T15:55:34.589Z,97533.72
2022-08-03T15:59:03.434Z,97524.16
2022-08-03T16:00:16.882Z,97531.91
2022-08-03T16:02:33.093Z,97530.84
2022-08-03T16:04:40.944Z,97524.75
2022-08-03T16:06:48.840Z,97522.03
2022-08-03T16:08:56.942Z,97525.84
2022-08-03T16:11:05.013Z,97525.59
2022-08-03T16:13:12.894Z,97519.53
2022-08-03T16:15:20.781Z,97517.84
2022-08-03T16:17:31.542Z,97508.97
2022-08-03T16:19:39.441Z,97512.09
2022-08-03T16:21:48.818Z,97503.72
2022-08-03T16:23:58.035Z,97510.19
2022-08-03T16:26:09.154Z,97509.00
2022-08-03T16:28:17.490Z,97515.69
2022-08-03T16:30:25.482Z,97512.44
2022-08-03T16:32:40.544Z,97501.56
2022-08-03T16:34:48.384Z,97504.44
2022-08-03T16:37:16.490Z,97501.81
2022-08-03T16:39:27.660Z,97500.75
2022-08-03T16:41:53.957Z,97508.41
2022-08-03T16:44:09.566Z,97500.88
2022-08-03T16:46:20.947Z,97495.72
2022-08-03T16:48:31.438Z,97499.31
2022-08-03T16:50:40.073Z,97496.22
2022-08-03T16:52:48.531Z,97487.47
2022-08-03T16:54:57.031Z,97480.91
2022-08-03T16:57:06.869Z,97485.56
2022-08-03T16:59:17.001Z,97483.31
2022-08-03T17:01:29.279Z,97487.34
2022-08-03T17:04:01.533Z,97476.59
2022-08-03T17:06:11.138Z,97480.19
2022-08-03T17:08:26.501Z,97479.22
2022-08-03T17:10:35.404Z,97478.00
2022-08-03T17:12:43.388Z,97481.81
2022-08-03T17:14:52.250Z,97481.00
2022-08-03T17:17:02.659Z,97479.91
2022-08-03T17:19:15.294Z,97484.19
2022-08-03T17:21:29.544Z,97486.59
2022-08-03T17:23:47.922Z,97480.75
2022-08-03T17:26:02.095Z,97479.16
2022-08-03T17:28:51.236Z,97479.41
2022-08-03T17:30:53.149Z,97486.22
2022-08-03T17:33:01.096Z,97477.59
2022-08-03T17:35:14.850Z,97494.19
2022-08-03T17:37:50.061Z,97495.25
2022-08-03T17:39:59.263Z,97487.94
2022-08-03T17:42:29.657Z,97491.50
2022-08-03T17:44:46.194Z,97495.16
2022-08-03T17:46:56.446Z,97497.31
2022-08-03T17:49:24.865Z,97496.56
2022-08-03T17:51:46.375Z,97492.84
2022-08-03T17:54:18.290Z,97496.81
2022-08-03T17:56:45.171Z,97495.38
2022-08-03T17:59:01.799Z,97498.38
2022-08-03T18:01:58.464Z,97497.00
2022-08-03T18:04:11.131Z,97501.66
2022-08-03T18:06:28.733Z,97511.53
2022-08-03T18:08:46.370Z,97510.38
2022-08-03T18:11:03.476Z,97513.13
2022-08-03T18:13:24.072Z,97509.34
2022-08-03T18:15:37.305Z,97509.63
2022-08-03T18:17:55.931Z,97511.50
2022-08-03T18:20:34.072Z,97514.72
2022-08-03T18:22:39.873Z,97510.81
2022-08-03T18:24:53.305Z,97507.81
2022-08-03T18:27:03.242Z,97514.13
2022-08-03T18:29:11.487Z,97512.31
2022-08-03T18:31:59.753Z,97517.91
2022-08-03T18:34:16.801Z,97505.38
2022-08-03T18:36:30.391Z,97506.47
2022-08-03T18:38:42.211Z,97504.22
2022-08-03T18:40:57.024Z,97505.59
2022-08-03T18:43:08.828Z,97499.78
2022-08-03T18:45:57.108Z,97497.38
2022-08-03T18:48:07.871Z,97495.47
2022-08-03T18:50:21.610Z,97485.22
2022-08-03T18:52:34.465Z,97501.25
2022-08-03T18:55:02.558Z,97490.34
2022-08-03T18:57:30.397Z,97484.34
2022-08-03T19:00:02.424Z,97482.84
2022-08-03T19:02:23.961Z,97484.78
2022-08-03T19:04:36.973Z,97481.19
2022-08-03T19:06:51.275Z,97480.81
2022-08-03T19:09:09.517Z,97478.47
2022-08-03T19:11:28.060Z,97488.13
2022-08-03T19:13:50.505Z,97484.81
2022-08-03T19:16:00.703Z,97487.94
2022-08-03T19:18:11.061Z,97479.94
2022-08-03T19:20:25.540Z,97481.22
2022-08-03T19:22:34.618Z,97488.97
2022-08-03T19:24:45.628Z,97485.59
2022-08-03T19:26:56.029Z,97485.59
2022-08-03T19:29:14.755Z,97489.34
2022-08-03T19:31:25.699Z,97482.81
2022-08-03T19:33:57.254Z,97485.16
2022-08-03T19:36:10.665Z,97495.59
2022-08-03T19:40:51.088Z,97489.22
2022-08-03T19:43:02.539Z,97493.28
2022-08-03T19:45:17.379Z,97487.09
2022-08-03T19:47:31.443Z,97485.19
2022-08-03T19:50:04.748Z,97482.84
2022-08-03T19:52:20.559Z,97487.94
2022-08-03T19:54:52.779Z,97486.22
2022-08-03T19:57:06.237Z,97490.34
2022-08-03T19:59:21.693Z,97491.38
2022-08-03T20:01:50.788Z,97488.69
2022-08-03T20:04:00.709Z,97489.34
2022-08-03T20:06:09.940Z,97482.41
2022-08-03T20:08:25.143Z,97488.94
2022-08-03T20:10:40.192Z,97492.72
2022-08-03T20:12:51.309Z,97487.03
2022-08-03T20:15:00.879Z,97482.13
2022-08-03T20:17:11.536Z,97479.34
2022-08-03T20:19:36.946Z,97482.47
2022-08-03T20:21:47.803Z,97477.34
2022-08-03T20:24:24.531Z,97473.09
2022-08-03T20:26:33.726Z,97475.75
2022-08-03T20:28:50.276Z,97478.63
2022-08-03T20:30:59.947Z,97476.94
2022-08-03T20:33:18.787Z,97472.59
2022-08-03T20:35:27.381Z,97477.81
2022-08-03T20:37:35.674Z,97470.22
2022-08-03T20:39:49.602Z,97469.91
2022-08-03T20:41:58.537Z,97466.25
2022-08-03T20:44:07.120Z,97461.94
2022-08-03T20:46:29.527Z,97472.56
2022-08-03T20:48:48.525Z,97466.03
2022-08-03T20:50:57.132Z,97463.56
2022-08-03T20:53:12.186Z,97462.41
2022-08-03T20:55:47.653Z,97461.84
2022-08-03T20:57:51.821Z,97462.81
2022-08-03T21:00:00.624Z,97463.84
2022-08-03T21:02:08.787Z,97467.94
2022-08-03T21:04:21.031Z,97465.72
2022-08-03T21:06:40.667Z,97467.97
2022-08-03T21:09:04.060Z,97464.94
2022-08-03T21:11:24.996Z,97462.53
2022-08-03T21:13:08.291Z,97481.53
2022-08-03T21:13:40.979Z,97473.16
2022-08-03T21:16:11.709Z,97477.84
2022-08-03T21:18:20.991Z,97476.72
2022-08-03T21:20:35.374Z,97479.53
2022-08-03T21:22:46.690Z,97483.53
2022-08-03T21:24:57.627Z,97478.22
2022-08-03T21:27:05.840Z,97478.59
2022-08-03T21:29:16.885Z,97482.94
2022-08-03T21:31:26.794Z,97483.97
2022-08-03T21:33:36.182Z,97476.81
2022-08-03T21:35:48.133Z,97471.47
2022-08-03T21:38:09.281Z,97476.91
2022-08-03T21:40:19.462Z,97468.38
2022-08-03T21:42:27.283Z,97471.16
2022-08-03T21:44:35.113Z,97469.56
2022-08-03T21:46:44.204Z,97473.16
2022-08-03T21:50:05.215Z,97470.28
2022-08-03T21:51:31.850Z,97466.97
2022-08-03T21:54:03.838Z,97471.28
2022-08-03T21:56:11.228Z,97475.25
2022-08-03T21:58:27.825Z,97466.19
2022-08-03T22:00:37.617Z,97475.25
2022-08-03T22:02:53.147Z,97476.91
2022-08-03T22:05:05.145Z,97477.69
2022-08-03T22:07:16.458Z,97474.41
2022-08-03T22:09:24.743Z,97471.69
2022-08-03T22:11:33.088Z,97475.44
2022-08-03T22:13:43.917Z,97467.94
2022-08-03T22:15:52.692Z,97474.59
2022-08-03T22:18:03.654Z,97476.88
2022-08-03T22:20:15.121Z,97484.66
2022-08-03T22:22:28.052Z,97487.09
2022-08-03T22:24:39.048Z,97481.97
2022-08-03T22:27:07.511Z,97480.88
2022-08-03T22:29:15.642Z,97479.94
2022-08-03T22:31:31.025Z,97485.75
2022-08-03T22:33:52.699Z,97476.78
2022-08-03T22:36:02.320Z,97478.28
2022-08-03T22:38:13.516Z,97472.22
2022-08-03T22:40:21.319Z,97475.44
2022-08-03T22:42:30.129Z,97469.06
2022-08-03T22:44:38.931Z,97470.84
2022-08-03T22:46:47.617Z,97468.97
2022-08-03T22:48:56.061Z,97467.81
2022-08-03T22:51:04.701Z,97471.19
2022-08-03T22:53:19.253Z,97475.09
2022-08-03T22:55:27.592Z,97476.53
2022-08-03T22:57:36.359Z,97477.94
2022-08-03T22:59:44.984Z,97481.53
2022-08-03T23:01:57.065Z,97477.63
2022-08-03T23:04:20.614Z,97478.81
2022-08-03T23:06:30.087Z,97473.63
2022-08-03T23:08:43.722Z,97465.97
2022-08-03T23:10:53.695Z,97465.84
2022-08-03T23:13:04.276Z,97466.31
2022-08-03T23:15:15.897Z,97462.66
2022-08-03T23:17:25.835Z,97470.41
2022-08-03T23:19:41.687Z,97474.69
2022-08-03T23:22:02.673Z,97474.25
2022-08-03T23:24:24.643Z,97477.50
2022-08-03T23:26:39.756Z,97470.94
2022-08-03T23:28:50.100Z,97478.78
2022-08-03T23:30:59.480Z,97473.06
2022-08-03T23:33:09.587Z,97476.50
2022-08-03T23:36:28.256Z,97482.56
2022-08-03T23:38:10.805Z,97481.06
2022-08-03T23:40:31.755Z,97481.13
2022-08-03T23:42:40.668Z,97477.81
2022-08-03T23:44:49.305Z,97482.78
2022-08-03T23:46:57.396Z,97482.19
2022-08-03T23:49:05.404Z,97481.06
2022-08-03T23:51:20.974Z,97478.03
2022-08-03T23:53:33.994Z,97481.34
2022-08-03T23:56:05.026Z,97479.41
2022-08-03T23:58:24.334Z,97479.00
